sensor_id;sensor_type;location;lat;lon;timestamp;P1;durP1;ratioP1;P2;durP2;ratioP2
8086;SDS011;4086;54.412;9.980;2023-01-16T00:00:10;7.13;;;2.50;;
8086;SDS011;4086;54.412;9.980;2023-01-16T00:02:37;6.53;;;2.83;;
8086;SDS011;4086;54.412;9.980;2023-01-16T00:05:04;4.43;;;2.97;;
8086;SDS011;4086;54.412;9.980;2023-01-16T00:07:31;14.47;;;3.73;;
8086;SDS011;4086;54.412;9.980;2023-01-16T00:09:57;10.80;;;3.47;;
8086;SDS011;4086;54.412;9.980;2023-01-16T00:12:25;7.97;;;3.60;;
8086;SDS011;4086;54.412;9.980;2023-01-16T00:14:51;6.27;;;3.20;;
8086;SDS011;4086;54.412;9.980;2023-01-16T00:17:17;6.17;;;3.33;;
8086;SDS011;4086;54.412;9.980;2023-01-16T00:19:44;8.43;;;2.90;;
8086;SDS011;4086;54.412;9.980;2023-01-16T00:22:10;7.00;;;3.50;;
8086;SDS011;4086;54.412;9.980;2023-01-16T00:24:36;8.63;;;4.40;;
8086;SDS011;4086;54.412;9.980;2023-01-16T00:27:03;10.73;;;3.77;;
8086;SDS011;4086;54.412;9.980;2023-01-16T00:29:30;8.73;;;3.60;;
8086;SDS011;4086;54.412;9.980;2023-01-16T00:31:57;6.03;;;3.47;;
8086;SDS011;4086;54.412;9.980;2023-01-16T00:34:23;12.37;;;4.03;;
8086;SDS011;4086;54.412;9.980;2023-01-16T00:36:50;5.20;;;3.43;;
8086;SDS011;4086;54.412;9.980;2023-01-16T00:39:16;10.33;;;3.73;;
8086;SDS011;4086;54.412;9.980;2023-01-16T00:41:43;7.47;;;3.80;;
8086;SDS011;4086;54.412;9.980;2023-01-16T00:44:09;7.40;;;3.80;;
8086;SDS011;4086;54.412;9.980;2023-01-16T00:46:37;10.27;;;4.37;;
8086;SDS011;4086;54.412;9.980;2023-01-16T00:49:03;9.43;;;4.40;;
8086;SDS011;4086;54.412;9.980;2023-01-16T00:51:29;7.63;;;3.90;;
8086;SDS011;4086;54.412;9.980;2023-01-16T00:53:56;6.80;;;3.90;;
8086;SDS011;4086;54.412;9.980;2023-01-16T00:56:22;7.83;;;3.47;;
8086;SDS011;4086;54.412;9.980;2023-01-16T00:58:48;8.23;;;4.33;;
8086;SDS011;4086;54.412;9.980;2023-01-16T01:01:15;8.73;;;4.33;;
8086;SDS011;4086;54.412;9.980;2023-01-16T01:03:42;7.43;;;4.37;;
8086;SDS011;4086;54.412;9.980;2023-01-16T01:06:09;6.03;;;3.73;;
8086;SDS011;4086;54.412;9.980;2023-01-16T01:08:37;6.30;;;4.43;;
8086;SDS011;4086;54.412;9.980;2023-01-16T01:11:06;6.40;;;3.83;;
8086;SDS011;4086;54.412;9.980;2023-01-16T01:13:34;8.73;;;3.83;;
8086;SDS011;4086;54.412;9.980;2023-01-16T01:16:00;10.13;;;4.00;;
8086;SDS011;4086;54.412;9.980;2023-01-16T01:18:26;6.87;;;3.93;;
8086;SDS011;4086;54.412;9.980;2023-01-16T01:20:54;12.93;;;4.87;;
8086;SDS011;4086;54.412;9.980;2023-01-16T01:23:20;7.20;;;4.00;;
8086;SDS011;4086;54.412;9.980;2023-01-16T01:25:47;6.90;;;3.80;;
8086;SDS011;4086;54.412;9.980;2023-01-16T01:28:14;7.87;;;4.20;;
8086;SDS011;4086;54.412;9.980;2023-01-16T01:30:40;5.77;;;4.40;;
8086;SDS011;4086;54.412;9.980;2023-01-16T01:33:07;7.03;;;4.10;;
8086;SDS011;4086;54.412;9.980;2023-01-16T01:35:34;8.87;;;4.10;;
8086;SDS011;4086;54.412;9.980;2023-01-16T01:38:02;7.60;;;4.40;;
8086;SDS011;4086;54.412;9.980;2023-01-16T01:40:28;8.03;;;4.33;;
8086;SDS011;4086;54.412;9.980;2023-01-16T01:42:55;8.43;;;4.40;;
8086;SDS011;4086;54.412;9.980;2023-01-16T01:45:22;7.70;;;5.00;;
8086;SDS011;4086;54.412;9.980;2023-01-16T01:47:51;10.73;;;5.03;;
8086;SDS011;4086;54.412;9.980;2023-01-16T01:50:27;5.93;;;4.87;;
8086;SDS011;4086;54.412;9.980;2023-01-16T01:52:59;8.77;;;4.90;;
8086;SDS011;4086;54.412;9.980;2023-01-16T01:55:28;8.87;;;5.27;;
8086;SDS011;4086;54.412;9.980;2023-01-16T01:57:55;9.73;;;5.50;;
8086;SDS011;4086;54.412;9.980;2023-01-16T02:00:24;8.37;;;5.27;;
8086;SDS011;4086;54.412;9.980;2023-01-16T02:02:53;10.47;;;4.63;;
8086;SDS011;4086;54.412;9.980;2023-01-16T02:05:23;8.30;;;5.20;;
8086;SDS011;4086;54.412;9.980;2023-01-16T02:07:51;8.83;;;5.10;;
8086;SDS011;4086;54.412;9.980;2023-01-16T02:10:22;10.63;;;5.60;;
8086;SDS011;4086;54.412;9.980;2023-01-16T02:12:52;8.63;;;5.50;;
8086;SDS011;4086;54.412;9.980;2023-01-16T02:15:20;8.40;;;5.83;;
8086;SDS011;4086;54.412;9.980;2023-01-16T02:17:47;8.40;;;5.63;;
8086;SDS011;4086;54.412;9.980;2023-01-16T02:20:32;7.50;;;5.47;;
8086;SDS011;4086;54.412;9.980;2023-01-16T02:23:07;8.67;;;5.33;;
8086;SDS011;4086;54.412;9.980;2023-01-16T02:26:00;8.83;;;5.57;;
8086;SDS011;4086;54.412;9.980;2023-01-16T02:32:03;8.73;;;6.10;;
8086;SDS011;4086;54.412;9.980;2023-01-16T02:34:51;9.37;;;5.87;;
8086;SDS011;4086;54.412;9.980;2023-01-16T02:37:31;6.90;;;5.67;;
8086;SDS011;4086;54.412;9.980;2023-01-16T02:40:07;11.87;;;6.70;;
8086;SDS011;4086;54.412;9.980;2023-01-16T02:42:43;8.83;;;5.73;;
8086;SDS011;4086;54.412;9.980;2023-01-16T02:45:14;10.03;;;7.20;;
8086;SDS011;4086;54.412;9.980;2023-01-16T02:47:46;8.90;;;5.90;;
8086;SDS011;4086;54.412;9.980;2023-01-16T02:50:19;9.93;;;6.00;;
8086;SDS011;4086;54.412;9.980;2023-01-16T02:52:48;10.70;;;6.33;;
8086;SDS011;4086;54.412;9.980;2023-01-16T02:55:20;8.90;;;6.07;;
8086;SDS011;4086;54.412;9.980;2023-01-16T02:57:53;10.13;;;6.87;;
8086;SDS011;4086;54.412;9.980;2023-01-16T03:00:24;12.30;;;6.30;;
8086;SDS011;4086;54.412;9.980;2023-01-16T03:02:52;10.00;;;6.67;;
8086;SDS011;4086;54.412;9.980;2023-01-16T03:05:18;10.93;;;6.67;;
8086;SDS011;4086;54.412;9.980;2023-01-16T03:07:51;8.57;;;5.77;;
8086;SDS011;4086;54.412;9.980;2023-01-16T03:10:42;10.03;;;6.23;;
8086;SDS011;4086;54.412;9.980;2023-01-16T03:13:22;9.63;;;6.63;;
8086;SDS011;4086;54.412;9.980;2023-01-16T03:15:55;12.00;;;7.10;;
8086;SDS011;4086;54.412;9.980;2023-01-16T03:18:30;9.33;;;6.87;;
8086;SDS011;4086;54.412;9.980;2023-01-16T03:21:01;9.83;;;7.50;;
8086;SDS011;4086;54.412;9.980;2023-01-16T03:23:32;9.37;;;6.83;;
8086;SDS011;4086;54.412;9.980;2023-01-16T03:26:01;10.57;;;7.30;;
8086;SDS011;4086;54.412;9.980;2023-01-16T03:28:32;11.23;;;7.10;;
8086;SDS011;4086;54.412;9.980;2023-01-16T03:31:04;10.73;;;8.10;;
8086;SDS011;4086;54.412;9.980;2023-01-16T03:33:36;11.50;;;7.00;;
8086;SDS011;4086;54.412;9.980;2023-01-16T03:36:10;11.40;;;7.47;;
8086;SDS011;4086;54.412;9.980;2023-01-16T03:38:39;9.57;;;7.30;;
8086;SDS011;4086;54.412;9.980;2023-01-16T03:41:08;12.33;;;7.97;;
8086;SDS011;4086;54.412;9.980;2023-01-16T03:43:36;10.90;;;6.87;;
8086;SDS011;4086;54.412;9.980;2023-01-16T03:46:04;11.67;;;7.33;;
8086;SDS011;4086;54.412;9.980;2023-01-16T03:48:34;9.93;;;7.30;;
8086;SDS011;4086;54.412;9.980;2023-01-16T03:51:05;9.70;;;7.03;;
8086;SDS011;4086;54.412;9.980;2023-01-16T03:53:33;8.93;;;7.20;;
8086;SDS011;4086;54.412;9.980;2023-01-16T03:56:04;11.53;;;6.80;;
8086;SDS011;4086;54.412;9.980;2023-01-16T03:58:36;11.43;;;6.83;;
8086;SDS011;4086;54.412;9.980;2023-01-16T04:01:08;10.43;;;6.33;;
8086;SDS011;4086;54.412;9.980;2023-01-16T04:03:43;11.53;;;6.10;;
8086;SDS011;4086;54.412;9.980;2023-01-16T04:06:14;9.30;;;6.23;;
8086;SDS011;4086;54.412;9.980;2023-01-16T04:08:43;12.07;;;6.83;;
8086;SDS011;4086;54.412;9.980;2023-01-16T04:11:11;9.13;;;6.63;;
8086;SDS011;4086;54.412;9.980;2023-01-16T04:13:39;9.97;;;6.50;;
8086;SDS011;4086;54.412;9.980;2023-01-16T04:16:08;12.10;;;6.00;;
8086;SDS011;4086;54.412;9.980;2023-01-16T04:18:35;7.63;;;5.57;;
8086;SDS011;4086;54.412;9.980;2023-01-16T04:21:04;7.73;;;5.23;;
8086;SDS011;4086;54.412;9.980;2023-01-16T04:23:32;6.20;;;5.17;;
8086;SDS011;4086;54.412;9.980;2023-01-16T04:25:58;8.47;;;5.60;;
8086;SDS011;4086;54.412;9.980;2023-01-16T04:28:25;8.00;;;5.30;;
8086;SDS011;4086;54.412;9.980;2023-01-16T04:30:51;7.77;;;6.13;;
8086;SDS011;4086;54.412;9.980;2023-01-16T04:33:17;7.47;;;5.70;;
8086;SDS011;4086;54.412;9.980;2023-01-16T04:35:44;8.67;;;5.10;;
8086;SDS011;4086;54.412;9.980;2023-01-16T04:38:12;6.90;;;5.17;;
8086;SDS011;4086;54.412;9.980;2023-01-16T04:40:38;7.43;;;5.03;;
8086;SDS011;4086;54.412;9.980;2023-01-16T04:43:04;7.83;;;5.93;;
8086;SDS011;4086;54.412;9.980;2023-01-16T04:45:31;5.87;;;5.00;;
8086;SDS011;4086;54.412;9.980;2023-01-16T04:47:57;8.90;;;5.30;;
8086;SDS011;4086;54.412;9.980;2023-01-16T04:50:24;7.80;;;5.03;;
8086;SDS011;4086;54.412;9.980;2023-01-16T04:52:50;9.30;;;5.40;;
8086;SDS011;4086;54.412;9.980;2023-01-16T04:55:18;7.07;;;4.73;;
8086;SDS011;4086;54.412;9.980;2023-01-16T04:57:45;6.90;;;4.90;;
8086;SDS011;4086;54.412;9.980;2023-01-16T05:00:12;7.10;;;4.60;;
8086;SDS011;4086;54.412;9.980;2023-01-16T05:02:40;9.77;;;5.00;;
8086;SDS011;4086;54.412;9.980;2023-01-16T05:05:06;6.53;;;4.90;;
8086;SDS011;4086;54.412;9.980;2023-01-16T05:07:33;6.10;;;4.80;;
8086;SDS011;4086;54.412;9.980;2023-01-16T05:09:59;5.10;;;4.20;;
8086;SDS011;4086;54.412;9.980;2023-01-16T05:12:27;7.07;;;4.63;;
8086;SDS011;4086;54.412;9.980;2023-01-16T05:14:53;4.97;;;4.37;;
8086;SDS011;4086;54.412;9.980;2023-01-16T05:17:19;7.90;;;4.00;;
8086;SDS011;4086;54.412;9.980;2023-01-16T05:19:49;5.67;;;3.90;;
8086;SDS011;4086;54.412;9.980;2023-01-16T05:22:16;6.47;;;4.03;;
8086;SDS011;4086;54.412;9.980;2023-01-16T05:24:42;9.53;;;4.67;;
8086;SDS011;4086;54.412;9.980;2023-01-16T05:27:09;6.87;;;3.80;;
8086;SDS011;4086;54.412;9.980;2023-01-16T05:29:36;5.23;;;3.53;;
8086;SDS011;4086;54.412;9.980;2023-01-16T05:32:03;6.87;;;3.77;;
8086;SDS011;4086;54.412;9.980;2023-01-16T05:34:30;5.43;;;3.50;;
8086;SDS011;4086;54.412;9.980;2023-01-16T05:36:56;5.80;;;3.90;;
8086;SDS011;4086;54.412;9.980;2023-01-16T05:39:22;5.87;;;4.00;;
8086;SDS011;4086;54.412;9.980;2023-01-16T05:41:49;6.33;;;3.77;;
8086;SDS011;4086;54.412;9.980;2023-01-16T05:44:15;5.53;;;3.83;;
8086;SDS011;4086;54.412;9.980;2023-01-16T05:46:43;5.07;;;3.80;;
8086;SDS011;4086;54.412;9.980;2023-01-16T05:49:09;5.97;;;3.67;;
8086;SDS011;4086;54.412;9.980;2023-01-16T05:51:36;5.23;;;3.87;;
8086;SDS011;4086;54.412;9.980;2023-01-16T05:54:02;5.13;;;4.07;;
8086;SDS011;4086;54.412;9.980;2023-01-16T05:56:29;6.07;;;3.70;;
8086;SDS011;4086;54.412;9.980;2023-01-16T05:58:55;6.63;;;4.00;;
8086;SDS011;4086;54.412;9.980;2023-01-16T06:01:22;4.27;;;3.40;;
8086;SDS011;4086;54.412;9.980;2023-01-16T06:03:49;6.77;;;4.43;;
8086;SDS011;4086;54.412;9.980;2023-01-16T06:06:16;7.10;;;3.70;;
8086;SDS011;4086;54.412;9.980;2023-01-16T06:08:42;7.07;;;3.80;;
8086;SDS011;4086;54.412;9.980;2023-01-16T06:11:09;6.17;;;3.73;;
8086;SDS011;4086;54.412;9.980;2023-01-16T06:13:35;4.27;;;3.20;;
8086;SDS011;4086;54.412;9.980;2023-01-16T06:16:01;6.60;;;3.57;;
8086;SDS011;4086;54.412;9.980;2023-01-16T06:18:28;8.13;;;3.57;;
8086;SDS011;4086;54.412;9.980;2023-01-16T06:20:55;5.57;;;4.30;;
8086;SDS011;4086;54.412;9.980;2023-01-16T06:23:22;9.77;;;4.40;;
8086;SDS011;4086;54.412;9.980;2023-01-16T06:25:48;9.17;;;3.87;;
8086;SDS011;4086;54.412;9.980;2023-01-16T06:28:15;7.57;;;3.80;;
8086;SDS011;4086;54.412;9.980;2023-01-16T06:30:41;6.90;;;4.17;;
8086;SDS011;4086;54.412;9.980;2023-01-16T06:33:08;5.40;;;3.80;;
8086;SDS011;4086;54.412;9.980;2023-01-16T06:35:34;7.47;;;4.30;;
8086;SDS011;4086;54.412;9.980;2023-01-16T06:38:02;4.37;;;3.80;;
8086;SDS011;4086;54.412;9.980;2023-01-16T06:40:28;6.03;;;3.83;;
8086;SDS011;4086;54.412;9.980;2023-01-16T06:42:55;6.10;;;3.90;;
8086;SDS011;4086;54.412;9.980;2023-01-16T06:45:21;7.43;;;3.97;;
8086;SDS011;4086;54.412;9.980;2023-01-16T06:47:52;5.43;;;3.43;;
8086;SDS011;4086;54.412;9.980;2023-01-16T06:50:18;6.40;;;3.77;;
8086;SDS011;4086;54.412;9.980;2023-01-16T06:52:45;5.53;;;3.40;;
8086;SDS011;4086;54.412;9.980;2023-01-16T06:55:12;6.23;;;3.30;;
8086;SDS011;4086;54.412;9.980;2023-01-16T06:57:39;5.73;;;3.67;;
8086;SDS011;4086;54.412;9.980;2023-01-16T07:00:06;4.47;;;3.20;;
8086;SDS011;4086;54.412;9.980;2023-01-16T07:02:33;4.80;;;3.30;;
8086;SDS011;4086;54.412;9.980;2023-01-16T07:05:04;4.87;;;3.57;;
8086;SDS011;4086;54.412;9.980;2023-01-16T07:07:32;7.30;;;3.67;;
8086;SDS011;4086;54.412;9.980;2023-01-16T07:09:58;4.40;;;3.63;;
8086;SDS011;4086;54.412;9.980;2023-01-16T07:12:26;6.40;;;3.30;;
8086;SDS011;4086;54.412;9.980;2023-01-16T07:14:52;6.90;;;3.50;;
8086;SDS011;4086;54.412;9.980;2023-01-16T07:17:37;6.33;;;3.60;;
8086;SDS011;4086;54.412;9.980;2023-01-16T07:20:21;6.83;;;4.00;;
8086;SDS011;4086;54.412;9.980;2023-01-16T07:23:11;4.93;;;3.17;;
8086;SDS011;4086;54.412;9.980;2023-01-16T07:25:40;5.83;;;3.80;;
8086;SDS011;4086;54.412;9.980;2023-01-16T07:28:08;6.40;;;4.10;;
8086;SDS011;4086;54.412;9.980;2023-01-16T07:30:35;7.50;;;3.70;;
8086;SDS011;4086;54.412;9.980;2023-01-16T07:33:02;6.40;;;3.10;;
8086;SDS011;4086;54.412;9.980;2023-01-16T07:35:28;3.57;;;3.00;;
8086;SDS011;4086;54.412;9.980;2023-01-16T07:37:55;6.23;;;2.90;;
8086;SDS011;4086;54.412;9.980;2023-01-16T07:40:21;6.23;;;3.00;;
8086;SDS011;4086;54.412;9.980;2023-01-16T07:42:49;3.00;;;2.80;;
8086;SDS011;4086;54.412;9.980;2023-01-16T07:45:16;3.57;;;2.70;;
8086;SDS011;4086;54.412;9.980;2023-01-16T07:47:43;3.27;;;2.60;;
8086;SDS011;4086;54.412;9.980;2023-01-16T07:50:10;4.23;;;2.80;;
8086;SDS011;4086;54.412;9.980;2023-01-16T07:52:36;2.50;;;2.27;;
8086;SDS011;4086;54.412;9.980;2023-01-16T07:55:03;3.20;;;2.57;;
8086;SDS011;4086;54.412;9.980;2023-01-16T07:57:30;4.80;;;2.30;;
8086;SDS011;4086;54.412;9.980;2023-01-16T07:59:56;5.90;;;2.43;;
8086;SDS011;4086;54.412;9.980;2023-01-16T08:02:24;2.60;;;2.30;;
8086;SDS011;4086;54.412;9.980;2023-01-16T08:04:50;2.70;;;2.20;;
8086;SDS011;4086;54.412;9.980;2023-01-16T08:07:17;4.37;;;2.20;;
8086;SDS011;4086;54.412;9.980;2023-01-16T08:09:43;4.53;;;2.30;;
8086;SDS011;4086;54.412;9.980;2023-01-16T08:12:09;2.43;;;2.23;;
8086;SDS011;4086;54.412;9.980;2023-01-16T08:14:36;3.53;;;2.10;;
8086;SDS011;4086;54.412;9.980;2023-01-16T08:17:04;3.67;;;1.93;;
8086;SDS011;4086;54.412;9.980;2023-01-16T08:19:32;1.83;;;1.73;;
8086;SDS011;4086;54.412;9.980;2023-01-16T08:21:58;2.67;;;2.40;;
8086;SDS011;4086;54.412;9.980;2023-01-16T08:24:24;3.13;;;2.10;;
8086;SDS011;4086;54.412;9.980;2023-01-16T08:26:51;3.20;;;1.70;;
8086;SDS011;4086;54.412;9.980;2023-01-16T08:29:18;2.17;;;1.83;;
8086;SDS011;4086;54.412;9.980;2023-01-16T08:31:44;2.37;;;1.90;;
8086;SDS011;4086;54.412;9.980;2023-01-16T08:34:10;3.77;;;1.60;;
8086;SDS011;4086;54.412;9.980;2023-01-16T08:36:38;2.60;;;1.70;;
8086;SDS011;4086;54.412;9.980;2023-01-16T08:39:05;3.80;;;2.00;;
8086;SDS011;4086;54.412;9.980;2023-01-16T08:41:31;3.80;;;1.63;;
8086;SDS011;4086;54.412;9.980;2023-01-16T08:44:15;2.10;;;1.90;;
8086;SDS011;4086;54.412;9.980;2023-01-16T08:47:00;2.07;;;1.63;;
8086;SDS011;4086;54.412;9.980;2023-01-16T08:49:46;2.37;;;1.30;;
8086;SDS011;4086;54.412;9.980;2023-01-16T08:52:31;1.90;;;1.80;;
8086;SDS011;4086;54.412;9.980;2023-01-16T08:54:59;5.87;;;1.90;;
8086;SDS011;4086;54.412;9.980;2023-01-16T08:57:26;2.40;;;1.73;;
8086;SDS011;4086;54.412;9.980;2023-01-16T08:59:53;3.40;;;1.70;;
8086;SDS011;4086;54.412;9.980;2023-01-16T09:02:20;2.80;;;1.80;;
8086;SDS011;4086;54.412;9.980;2023-01-16T09:04:47;4.00;;;2.10;;
8086;SDS011;4086;54.412;9.980;2023-01-16T09:07:13;2.57;;;1.40;;
8086;SDS011;4086;54.412;9.980;2023-01-16T09:09:41;3.77;;;1.90;;
8086;SDS011;4086;54.412;9.980;2023-01-16T09:12:08;2.63;;;1.60;;
8086;SDS011;4086;54.412;9.980;2023-01-16T09:14:53;2.87;;;1.50;;
8086;SDS011;4086;54.412;9.980;2023-01-16T09:17:21;3.97;;;1.63;;
8086;SDS011;4086;54.412;9.980;2023-01-16T09:19:47;2.17;;;1.60;;
8086;SDS011;4086;54.412;9.980;2023-01-16T09:22:13;3.90;;;1.73;;
8086;SDS011;4086;54.412;9.980;2023-01-16T09:24:41;2.33;;;1.40;;
8086;SDS011;4086;54.412;9.980;2023-01-16T09:27:08;3.37;;;1.73;;
8086;SDS011;4086;54.412;9.980;2023-01-16T09:29:34;4.07;;;2.00;;
8086;SDS011;4086;54.412;9.980;2023-01-16T09:32:01;1.60;;;1.50;;
8086;SDS011;4086;54.412;9.980;2023-01-16T09:34:32;2.00;;;1.70;;
8086;SDS011;4086;54.412;9.980;2023-01-16T09:36:58;3.20;;;1.93;;
8086;SDS011;4086;54.412;9.980;2023-01-16T09:39:25;2.93;;;1.33;;
8086;SDS011;4086;54.412;9.980;2023-01-16T09:41:56;3.00;;;1.50;;
8086;SDS011;4086;54.412;9.980;2023-01-16T09:44:49;3.97;;;1.17;;
8086;SDS011;4086;54.412;9.980;2023-01-16T09:47:17;2.83;;;1.40;;
8086;SDS011;4086;54.412;9.980;2023-01-16T09:49:48;2.03;;;1.50;;
8086;SDS011;4086;54.412;9.980;2023-01-16T09:52:18;3.23;;;1.50;;
8086;SDS011;4086;54.412;9.980;2023-01-16T09:55:04;2.60;;;1.13;;
8086;SDS011;4086;54.412;9.980;2023-01-16T09:57:55;2.17;;;1.37;;
8086;SDS011;4086;54.412;9.980;2023-01-16T10:00:39;3.13;;;1.17;;
8086;SDS011;4086;54.412;9.980;2023-01-16T10:03:06;1.47;;;1.13;;
8086;SDS011;4086;54.412;9.980;2023-01-16T10:05:34;2.50;;;1.50;;
8086;SDS011;4086;54.412;9.980;2023-01-16T10:08:04;2.80;;;1.73;;
8086;SDS011;4086;54.412;9.980;2023-01-16T10:10:39;1.37;;;1.20;;
8086;SDS011;4086;54.412;9.980;2023-01-16T10:13:14;1.23;;;1.10;;
8086;SDS011;4086;54.412;9.980;2023-01-16T10:15:47;3.63;;;1.30;;
8086;SDS011;4086;54.412;9.980;2023-01-16T10:18:19;2.50;;;1.53;;
8086;SDS011;4086;54.412;9.980;2023-01-16T10:20:54;2.50;;;1.47;;
8086;SDS011;4086;54.412;9.980;2023-01-16T10:23:31;1.50;;;1.00;;
8086;SDS011;4086;54.412;9.980;2023-01-16T10:26:06;1.80;;;1.23;;
8086;SDS011;4086;54.412;9.980;2023-01-16T10:28:38;3.80;;;1.30;;
8086;SDS011;4086;54.412;9.980;2023-01-16T10:31:14;2.33;;;1.00;;
8086;SDS011;4086;54.412;9.980;2023-01-16T10:33:44;1.83;;;1.10;;
8086;SDS011;4086;54.412;9.980;2023-01-16T10:36:15;3.03;;;1.00;;
8086;SDS011;4086;54.412;9.980;2023-01-16T10:38:44;2.20;;;1.00;;
8086;SDS011;4086;54.412;9.980;2023-01-16T10:41:12;2.10;;;1.10;;
8086;SDS011;4086;54.412;9.980;2023-01-16T10:43:55;2.10;;;1.20;;
8086;SDS011;4086;54.412;9.980;2023-01-16T10:46:39;0.80;;;0.80;;
8086;SDS011;4086;54.412;9.980;2023-01-16T10:49:24;0.90;;;0.77;;
8086;SDS011;4086;54.412;9.980;2023-01-16T10:51:54;1.40;;;0.83;;
8086;SDS011;4086;54.412;9.980;2023-01-16T10:54:22;1.17;;;1.03;;
8086;SDS011;4086;54.412;9.980;2023-01-16T10:56:49;1.10;;;1.00;;
8086;SDS011;4086;54.412;9.980;2023-01-16T10:59:17;1.57;;;1.00;;
8086;SDS011;4086;54.412;9.980;2023-01-16T11:01:44;1.80;;;1.10;;
8086;SDS011;4086;54.412;9.980;2023-01-16T11:04:11;2.33;;;1.00;;
8086;SDS011;4086;54.412;9.980;2023-01-16T11:06:38;0.97;;;0.87;;
8086;SDS011;4086;54.412;9.980;2023-01-16T11:09:14;2.50;;;1.10;;
8086;SDS011;4086;54.412;9.980;2023-01-16T11:11:43;2.13;;;1.07;;
8086;SDS011;4086;54.412;9.980;2023-01-16T11:14:30;2.53;;;1.03;;
8086;SDS011;4086;54.412;9.980;2023-01-16T11:17:20;2.50;;;1.50;;
8086;SDS011;4086;54.412;9.980;2023-01-16T11:20:07;1.67;;;1.03;;
8086;SDS011;4086;54.412;9.980;2023-01-16T11:22:35;1.30;;;1.10;;
8086;SDS011;4086;54.412;9.980;2023-01-16T11:25:04;1.50;;;1.30;;
8086;SDS011;4086;54.412;9.980;2023-01-16T11:27:33;1.33;;;0.80;;
8086;SDS011;4086;54.412;9.980;2023-01-16T11:30:04;3.27;;;1.10;;
8086;SDS011;4086;54.412;9.980;2023-01-16T11:32:34;1.27;;;1.10;;
8086;SDS011;4086;54.412;9.980;2023-01-16T11:35:03;1.73;;;1.37;;
8086;SDS011;4086;54.412;9.980;2023-01-16T11:37:36;2.10;;;1.10;;
8086;SDS011;4086;54.412;9.980;2023-01-16T11:40:03;2.73;;;1.73;;
8086;SDS011;4086;54.412;9.980;2023-01-16T11:42:31;2.53;;;1.17;;
8086;SDS011;4086;54.412;9.980;2023-01-16T11:45:18;3.07;;;1.50;;
8086;SDS011;4086;54.412;9.980;2023-01-16T11:48:05;1.40;;;1.00;;
8086;SDS011;4086;54.412;9.980;2023-01-16T11:50:48;0.97;;;0.80;;
8086;SDS011;4086;54.412;9.980;2023-01-16T11:53:15;2.13;;;1.50;;
8086;SDS011;4086;54.412;9.980;2023-01-16T11:55:44;2.20;;;1.30;;
8086;SDS011;4086;54.412;9.980;2023-01-16T11:58:16;2.63;;;1.10;;
8086;SDS011;4086;54.412;9.980;2023-01-16T12:00:49;0.97;;;0.90;;
8086;SDS011;4086;54.412;9.980;2023-01-16T12:06:19;1.53;;;1.00;;
8086;SDS011;4086;54.412;9.980;2023-01-16T12:11:51;1.13;;;0.90;;
8086;SDS011;4086;54.412;9.980;2023-01-16T12:14:45;1.20;;;1.10;;
8086;SDS011;4086;54.412;9.980;2023-01-16T12:17:17;1.47;;;1.30;;
8086;SDS011;4086;54.412;9.980;2023-01-16T12:19:55;2.30;;;1.10;;
8086;SDS011;4086;54.412;9.980;2023-01-16T12:22:41;1.20;;;1.10;;
8086;SDS011;4086;54.412;9.980;2023-01-16T12:25:19;1.13;;;1.07;;
8086;SDS011;4086;54.412;9.980;2023-01-16T12:27:52;1.23;;;1.13;;
8086;SDS011;4086;54.412;9.980;2023-01-16T12:30:25;1.43;;;1.20;;
8086;SDS011;4086;54.412;9.980;2023-01-16T12:33:02;2.73;;;1.30;;
8086;SDS011;4086;54.412;9.980;2023-01-16T12:35:41;2.17;;;1.53;;
8086;SDS011;4086;54.412;9.980;2023-01-16T12:38:14;2.77;;;1.20;;
8086;SDS011;4086;54.412;9.980;2023-01-16T12:44:07;1.77;;;1.07;;
8086;SDS011;4086;54.412;9.980;2023-01-16T12:46:43;3.10;;;1.70;;
8086;SDS011;4086;54.412;9.980;2023-01-16T12:49:20;1.37;;;1.27;;
8086;SDS011;4086;54.412;9.980;2023-01-16T12:51:54;1.87;;;1.13;;
8086;SDS011;4086;54.412;9.980;2023-01-16T12:54:33;2.47;;;1.43;;
8086;SDS011;4086;54.412;9.980;2023-01-16T12:57:16;1.20;;;1.10;;
8086;SDS011;4086;54.412;9.980;2023-01-16T12:59:51;3.47;;;1.20;;
8086;SDS011;4086;54.412;9.980;2023-01-16T13:02:21;1.20;;;1.10;;
8086;SDS011;4086;54.412;9.980;2023-01-16T13:04:57;1.03;;;0.80;;
8086;SDS011;4086;54.412;9.980;2023-01-16T13:07:25;1.53;;;1.03;;
8086;SDS011;4086;54.412;9.980;2023-01-16T13:09:56;2.13;;;1.10;;
8086;SDS011;4086;54.412;9.980;2023-01-16T13:12:39;1.40;;;1.10;;
8086;SDS011;4086;54.412;9.980;2023-01-16T13:15:26;3.63;;;1.50;;
8086;SDS011;4086;54.412;9.980;2023-01-16T13:17:56;1.20;;;1.10;;
8086;SDS011;4086;54.412;9.980;2023-01-16T13:20:26;1.87;;;1.30;;
8086;SDS011;4086;54.412;9.980;2023-01-16T13:22:54;1.87;;;1.27;;
8086;SDS011;4086;54.412;9.980;2023-01-16T13:25:24;1.17;;;1.00;;
8086;SDS011;4086;54.412;9.980;2023-01-16T13:27:53;1.40;;;1.10;;
8086;SDS011;4086;54.412;9.980;2023-01-16T13:30:21;1.90;;;0.90;;
8086;SDS011;4086;54.412;9.980;2023-01-16T13:32:49;1.70;;;1.20;;
8086;SDS011;4086;54.412;9.980;2023-01-16T13:35:19;2.37;;;1.10;;
8086;SDS011;4086;54.412;9.980;2023-01-16T13:37:52;1.57;;;1.10;;
8086;SDS011;4086;54.412;9.980;2023-01-16T13:40:27;2.03;;;1.10;;
8086;SDS011;4086;54.412;9.980;2023-01-16T13:43:00;2.43;;;1.43;;
8086;SDS011;4086;54.412;9.980;2023-01-16T13:45:43;1.20;;;1.10;;
8086;SDS011;4086;54.412;9.980;2023-01-16T13:48:17;2.10;;;1.13;;
8086;SDS011;4086;54.412;9.980;2023-01-16T13:50:46;1.93;;;1.10;;
8086;SDS011;4086;54.412;9.980;2023-01-16T13:53:16;1.60;;;0.73;;
8086;SDS011;4086;54.412;9.980;2023-01-16T13:55:44;5.13;;;1.20;;
8086;SDS011;4086;54.412;9.980;2023-01-16T13:58:14;2.03;;;1.40;;
8086;SDS011;4086;54.412;9.980;2023-01-16T14:00:42;1.80;;;1.30;;
8086;SDS011;4086;54.412;9.980;2023-01-16T14:03:17;1.27;;;1.17;;
8086;SDS011;4086;54.412;9.980;2023-01-16T14:05:49;2.00;;;1.30;;
8086;SDS011;4086;54.412;9.980;2023-01-16T14:11:39;1.37;;;0.90;;
8086;SDS011;4086;54.412;9.980;2023-01-16T14:14:20;4.27;;;1.10;;
8086;SDS011;4086;54.412;9.980;2023-01-16T14:17:09;1.27;;;1.17;;
8086;SDS011;4086;54.412;9.980;2023-01-16T14:19:36;2.00;;;1.17;;
8086;SDS011;4086;54.412;9.980;2023-01-16T14:22:03;1.53;;;1.10;;
8086;SDS011;4086;54.412;9.980;2023-01-16T14:24:46;1.50;;;1.37;;
8086;SDS011;4086;54.412;9.980;2023-01-16T14:27:14;1.20;;;1.10;;
8086;SDS011;4086;54.412;9.980;2023-01-16T14:29:44;1.90;;;1.00;;
8086;SDS011;4086;54.412;9.980;2023-01-16T14:32:15;2.87;;;1.27;;
8086;SDS011;4086;54.412;9.980;2023-01-16T14:34:46;1.57;;;1.10;;
8086;SDS011;4086;54.412;9.980;2023-01-16T14:37:16;0.93;;;0.87;;
8086;SDS011;4086;54.412;9.980;2023-01-16T14:39:48;1.10;;;1.00;;
8086;SDS011;4086;54.412;9.980;2023-01-16T14:42:16;1.17;;;1.00;;
8086;SDS011;4086;54.412;9.980;2023-01-16T14:45:13;2.07;;;0.93;;
8086;SDS011;4086;54.412;9.980;2023-01-16T14:48:08;1.47;;;1.30;;
8086;SDS011;4086;54.412;9.980;2023-01-16T14:50:55;2.13;;;1.20;;
8086;SDS011;4086;54.412;9.980;2023-01-16T14:53:41;1.40;;;1.00;;
8086;SDS011;4086;54.412;9.980;2023-01-16T14:56:27;1.37;;;1.27;;
8086;SDS011;4086;54.412;9.980;2023-01-16T14:58:56;1.57;;;1.20;;
8086;SDS011;4086;54.412;9.980;2023-01-16T15:01:32;1.53;;;1.43;;
8086;SDS011;4086;54.412;9.980;2023-01-16T15:04:18;2.70;;;1.43;;
8086;SDS011;4086;54.412;9.980;2023-01-16T15:06:48;1.30;;;1.20;;
8086;SDS011;4086;54.412;9.980;2023-01-16T15:09:18;2.27;;;0.97;;
8086;SDS011;4086;54.412;9.980;2023-01-16T15:11:48;1.30;;;1.20;;
8086;SDS011;4086;54.412;9.980;2023-01-16T15:14:18;1.47;;;1.10;;
8086;SDS011;4086;54.412;9.980;2023-01-16T15:16:57;2.20;;;1.53;;
8086;SDS011;4086;54.412;9.980;2023-01-16T15:19:59;2.33;;;1.30;;
8086;SDS011;4086;54.412;9.980;2023-01-16T15:22:49;2.00;;;1.30;;
8086;SDS011;4086;54.412;9.980;2023-01-16T15:25:21;1.73;;;1.00;;
8086;SDS011;4086;54.412;9.980;2023-01-16T15:27:55;2.73;;;1.40;;
8086;SDS011;4086;54.412;9.980;2023-01-16T15:30:26;2.40;;;1.20;;
8086;SDS011;4086;54.412;9.980;2023-01-16T15:32:53;1.50;;;1.07;;
8086;SDS011;4086;54.412;9.980;2023-01-16T15:35:21;5.37;;;1.33;;
8086;SDS011;4086;54.412;9.980;2023-01-16T15:37:48;1.07;;;1.00;;
8086;SDS011;4086;54.412;9.980;2023-01-16T15:40:21;1.13;;;1.00;;
8086;SDS011;4086;54.412;9.980;2023-01-16T15:42:48;1.73;;;1.37;;
8086;SDS011;4086;54.412;9.980;2023-01-16T15:45:34;2.20;;;1.33;;
8086;SDS011;4086;54.412;9.980;2023-01-16T15:48:24;3.30;;;1.43;;
8086;SDS011;4086;54.412;9.980;2023-01-16T15:51:00;2.30;;;1.50;;
8086;SDS011;4086;54.412;9.980;2023-01-16T15:53:30;1.50;;;1.40;;